sensor_id;sensor_type;location;lat;lon;timestamp;temperature;humidity
32524;DHT22;18965;52.242;20.886;2022-08-01T00:01:23;17.20;87.50
32524;DHT22;18965;52.242;20.886;2022-08-01T00:03:48;17.20;87.60
32524;DHT22;18965;52.242;20.886;2022-08-01T00:09:14;17.20;87.50
32524;DHT22;18965;52.242;20.886;2022-08-01T00:11:42;17.20;87.40
32524;DHT22;18965;52.242;20.886;2022-08-01T00:14:14;17.20;87.40
32524;DHT22;18965;52.242;20.886;2022-08-01T00:16:45;17.20;87.40
32524;DHT22;18965;52.242;20.886;2022-08-01T00:19:18;17.20;87.40
32524;DHT22;18965;52.242;20.886;2022-08-01T00:21:53;17.20;87.40
32524;DHT22;18965;52.242;20.886;2022-08-01T00:24:19;17.20;87.30
32524;DHT22;18965;52.242;20.886;2022-08-01T00:26:45;17.20;87.30
32524;DHT22;18965;52.242;20.886;2022-08-01T00:29:16;17.20;87.30
32524;DHT22;18965;52.242;20.886;2022-08-01T00:31:47;17.20;87.40
32524;DHT22;18965;52.242;20.886;2022-08-01T00:34:16;17.20;87.40
32524;DHT22;18965;52.242;20.886;2022-08-01T00:36:45;17.10;87.30
32524;DHT22;18965;52.242;20.886;2022-08-01T00:39:14;17.10;87.30
32524;DHT22;18965;52.242;20.886;2022-08-01T00:41:46;17.10;87.30
32524;DHT22;18965;52.242;20.886;2022-08-01T00:44:17;17.10;87.30
32524;DHT22;18965;52.242;20.886;2022-08-01T00:46:43;17.10;87.30
32524;DHT22;18965;52.242;20.886;2022-08-01T00:49:09;17.10;87.30
32524;DHT22;18965;52.242;20.886;2022-08-01T00:51:38;17.10;87.30
32524;DHT22;18965;52.242;20.886;2022-08-01T00:54:04;17.10;87.30
32524;DHT22;18965;52.242;20.886;2022-08-01T00:56:56;17.10;87.30
32524;DHT22;18965;52.242;20.886;2022-08-01T00:59:38;17.10;87.30
32524;DHT22;18965;52.242;20.886;2022-08-01T01:02:04;17.10;87.20
32524;DHT22;18965;52.242;20.886;2022-08-01T01:04:30;17.00;87.10
32524;DHT22;18965;52.242;20.886;2022-08-01T01:07:17;17.00;87.20
32524;DHT22;18965;52.242;20.886;2022-08-01T01:09:58;17.00;87.20
32524;DHT22;18965;52.242;20.886;2022-08-01T01:15:49;17.00;87.20
32524;DHT22;18965;52.242;20.886;2022-08-01T01:18:28;16.90;87.20
32524;DHT22;18965;52.242;20.886;2022-08-01T01:30:12;16.90;87.20
32524;DHT22;18965;52.242;20.886;2022-08-01T01:32:50;16.90;87.10
32524;DHT22;18965;52.242;20.886;2022-08-01T01:35:30;16.80;87.00
32524;DHT22;18965;52.242;20.886;2022-08-01T01:38:16;16.80;87.00
32524;DHT22;18965;52.242;20.886;2022-08-01T01:40:47;16.80;87.00
32524;DHT22;18965;52.242;20.886;2022-08-01T01:43:15;16.70;87.00
32524;DHT22;18965;52.242;20.886;2022-08-01T01:45:42;16.70;86.90
32524;DHT22;18965;52.242;20.886;2022-08-01T01:48:13;16.70;86.90
32524;DHT22;18965;52.242;20.886;2022-08-01T01:50:44;16.60;86.80
32524;DHT22;18965;52.242;20.886;2022-08-01T01:53:10;16.60;86.70
32524;DHT22;18965;52.242;20.886;2022-08-01T01:55:42;16.60;86.60
32524;DHT22;18965;52.242;20.886;2022-08-01T01:58:16;16.60;86.70
32524;DHT22;18965;52.242;20.886;2022-08-01T02:01:02;16.50;86.60
32524;DHT22;18965;52.242;20.886;2022-08-01T02:03:46;16.50;86.60
32524;DHT22;18965;52.242;20.886;2022-08-01T02:06:47;16.40;86.50
32524;DHT22;18965;52.242;20.886;2022-08-01T02:09:23;16.30;86.40
32524;DHT22;18965;52.242;20.886;2022-08-01T02:11:49;16.30;86.40
32524;DHT22;18965;52.242;20.886;2022-08-01T02:14:22;16.30;86.40
32524;DHT22;18965;52.242;20.886;2022-08-01T02:16:49;16.20;87.10
32524;DHT22;18965;52.242;20.886;2022-08-01T02:19:42;16.20;86.40
32524;DHT22;18965;52.242;20.886;2022-08-01T02:22:29;16.10;86.30
32524;DHT22;18965;52.242;20.886;2022-08-01T02:31:07;16.00;86.40
32524;DHT22;18965;52.242;20.886;2022-08-01T02:34:13;16.00;86.40
32524;DHT22;18965;52.242;20.886;2022-08-01T02:37:01;15.90;86.40
32524;DHT22;18965;52.242;20.886;2022-08-01T02:39:37;15.80;86.40
32524;DHT22;18965;52.242;20.886;2022-08-01T02:42:15;15.80;86.50
32524;DHT22;18965;52.242;20.886;2022-08-01T02:44:59;15.80;86.50
32524;DHT22;18965;52.242;20.886;2022-08-01T02:47:27;15.80;86.60
32524;DHT22;18965;52.242;20.886;2022-08-01T02:49:57;15.80;86.50
32524;DHT22;18965;52.242;20.886;2022-08-01T02:52:35;15.70;86.50
32524;DHT22;18965;52.242;20.886;2022-08-01T02:55:10;15.70;86.70
32524;DHT22;18965;52.242;20.886;2022-08-01T02:57:40;15.70;86.70
32524;DHT22;18965;52.242;20.886;2022-08-01T03:00:08;15.60;86.60
32524;DHT22;18965;52.242;20.886;2022-08-01T03:02:36;15.60;86.70
32524;DHT22;18965;52.242;20.886;2022-08-01T03:05:06;15.60;86.70
32524;DHT22;18965;52.242;20.886;2022-08-01T03:07:35;15.60;86.80
32524;DHT22;18965;52.242;20.886;2022-08-01T03:10:04;15.60;86.80
32524;DHT22;18965;52.242;20.886;2022-08-01T03:12:34;15.60;86.90
32524;DHT22;18965;52.242;20.886;2022-08-01T03:15:17;15.60;86.90
32524;DHT22;18965;52.242;20.886;2022-08-01T03:17:56;15.50;87.00
32524;DHT22;18965;52.242;20.886;2022-08-01T03:20:27;15.50;87.00
32524;DHT22;18965;52.242;20.886;2022-08-01T03:22:55;15.50;87.00
32524;DHT22;18965;52.242;20.886;2022-08-01T03:25:24;15.50;87.10
32524;DHT22;18965;52.242;20.886;2022-08-01T03:28:01;15.50;87.10
32524;DHT22;18965;52.242;20.886;2022-08-01T03:30:50;15.50;87.20
32524;DHT22;18965;52.242;20.886;2022-08-01T03:33:19;15.50;87.20
32524;DHT22;18965;52.242;20.886;2022-08-01T03:35:54;15.50;87.30
32524;DHT22;18965;52.242;20.886;2022-08-01T03:38:28;15.50;87.50
32524;DHT22;18965;52.242;20.886;2022-08-01T03:41:10;15.60;87.60
32524;DHT22;18965;52.242;20.886;2022-08-01T03:43:45;15.60;87.60
32524;DHT22;18965;52.242;20.886;2022-08-01T03:47:11;15.60;87.60
32524;DHT22;18965;52.242;20.886;2022-08-01T03:49:25;15.70;87.70
32524;DHT22;18965;52.242;20.886;2022-08-01T03:51:52;15.70;87.80
32524;DHT22;18965;52.242;20.886;2022-08-01T03:54:28;15.70;87.80
32524;DHT22;18965;52.242;20.886;2022-08-01T03:59:49;15.80;87.80
32524;DHT22;18965;52.242;20.886;2022-08-01T04:02:27;15.90;87.90
32524;DHT22;18965;52.242;20.886;2022-08-01T04:04:58;15.90;87.90
32524;DHT22;18965;52.242;20.886;2022-08-01T04:07:47;15.90;87.80
32524;DHT22;18965;52.242;20.886;2022-08-01T04:10:28;16.00;87.90
32524;DHT22;18965;52.242;20.886;2022-08-01T04:12:54;16.00;87.80
32524;DHT22;18965;52.242;20.886;2022-08-01T04:15:44;16.00;87.70
32524;DHT22;18965;52.242;20.886;2022-08-01T04:18:20;16.00;87.70
32524;DHT22;18965;52.242;20.886;2022-08-01T04:20:47;16.10;87.60
32524;DHT22;18965;52.242;20.886;2022-08-01T04:26:53;16.20;87.60
32524;DHT22;18965;52.242;20.886;2022-08-01T04:29:40;16.30;87.50
32524;DHT22;18965;52.242;20.886;2022-08-01T04:32:08;16.30;87.40
32524;DHT22;18965;52.242;20.886;2022-08-01T04:34:38;16.30;87.30
32524;DHT22;18965;52.242;20.886;2022-08-01T04:37:09;16.40;87.20
32524;DHT22;18965;52.242;20.886;2022-08-01T04:39:51;16.40;87.10
32524;DHT22;18965;52.242;20.886;2022-08-01T04:42:30;16.40;87.10
32524;DHT22;18965;52.242;20.886;2022-08-01T04:45:26;16.50;87.00
32524;DHT22;18965;52.242;20.886;2022-08-01T04:48:09;16.50;87.00
32524;DHT22;18965;52.242;20.886;2022-08-01T04:50:54;16.60;86.80
32524;DHT22;18965;52.242;20.886;2022-08-01T04:53:36;16.60;86.70
32524;DHT22;18965;52.242;20.886;2022-08-01T04:59:11;16.60;86.30
32524;DHT22;18965;52.242;20.886;2022-08-01T05:02:01;16.60;86.10
32524;DHT22;18965;52.242;20.886;2022-08-01T05:04:28;16.60;86.10
32524;DHT22;18965;52.242;20.886;2022-08-01T05:06:54;16.60;86.10
32524;DHT22;18965;52.242;20.886;2022-08-01T05:09:31;16.60;86.00
32524;DHT22;18965;52.242;20.886;2022-08-01T05:11:59;16.60;85.90
32524;DHT22;18965;52.242;20.886;2022-08-01T05:14:50;16.60;86.00
32524;DHT22;18965;52.242;20.886;2022-08-01T05:17:16;16.60;85.90
32524;DHT22;18965;52.242;20.886;2022-08-01T05:19:42;16.70;86.30
32524;DHT22;18965;52.242;20.886;2022-08-01T05:22:09;16.90;86.50
32524;DHT22;18965;52.242;20.886;2022-08-01T05:24:37;17.00;86.50
32524;DHT22;18965;52.242;20.886;2022-08-01T05:27:06;17.20;86.70
32524;DHT22;18965;52.242;20.886;2022-08-01T05:29:35;17.40;86.90
32524;DHT22;18965;52.242;20.886;2022-08-01T05:32:02;17.70;86.40
32524;DHT22;18965;52.242;20.886;2022-08-01T05:34:28;17.90;85.70
32524;DHT22;18965;52.242;20.886;2022-08-01T05:36:54;18.00;85.70
32524;DHT22;18965;52.242;20.886;2022-08-01T05:39:20;18.30;86.00
32524;DHT22;18965;52.242;20.886;2022-08-01T05:41:45;18.60;85.10
32524;DHT22;18965;52.242;20.886;2022-08-01T05:44:11;18.70;83.70
32524;DHT22;18965;52.242;20.886;2022-08-01T05:46:38;18.80;82.90
32524;DHT22;18965;52.242;20.886;2022-08-01T05:49:05;19.00;82.10
32524;DHT22;18965;52.242;20.886;2022-08-01T05:51:31;19.10;81.70
32524;DHT22;18965;52.242;20.886;2022-08-01T05:53:57;19.20;81.30
32524;DHT22;18965;52.242;20.886;2022-08-01T05:56:24;19.30;80.50
32524;DHT22;18965;52.242;20.886;2022-08-01T05:58:51;19.40;80.00
32524;DHT22;18965;52.242;20.886;2022-08-01T06:01:18;19.50;79.80
32524;DHT22;18965;52.242;20.886;2022-08-01T06:03:44;19.70;79.90
32524;DHT22;18965;52.242;20.886;2022-08-01T06:06:10;20.20;79.50
32524;DHT22;18965;52.242;20.886;2022-08-01T06:08:36;20.70;77.70
32524;DHT22;18965;52.242;20.886;2022-08-01T06:11:02;20.80;76.20
32524;DHT22;18965;52.242;20.886;2022-08-01T06:13:28;20.80;75.50
32524;DHT22;18965;52.242;20.886;2022-08-01T06:15:54;20.80;74.90
32524;DHT22;18965;52.242;20.886;2022-08-01T06:18:20;20.80;74.70
32524;DHT22;18965;52.242;20.886;2022-08-01T06:20:46;20.90;74.20
32524;DHT22;18965;52.242;20.886;2022-08-01T06:23:13;20.90;74.20
32524;DHT22;18965;52.242;20.886;2022-08-01T06:25:41;21.00;75.40
32524;DHT22;18965;52.242;20.886;2022-08-01T06:28:07;21.30;75.50
32524;DHT22;18965;52.242;20.886;2022-08-01T06:30:33;21.60;75.20
32524;DHT22;18965;52.242;20.886;2022-08-01T06:32:59;21.90;74.50
32524;DHT22;18965;52.242;20.886;2022-08-01T06:35:26;22.70;73.20
32524;DHT22;18965;52.242;20.886;2022-08-01T06:37:54;24.30;69.00
32524;DHT22;18965;52.242;20.886;2022-08-01T06:40:19;25.30;64.20
32524;DHT22;18965;52.242;20.886;2022-08-01T06:42:45;25.20;62.90
32524;DHT22;18965;52.242;20.886;2022-08-01T06:45:13;24.70;63.00
32524;DHT22;18965;52.242;20.886;2022-08-01T06:47:39;24.20;63.60
32524;DHT22;18965;52.242;20.886;2022-08-01T06:50:07;23.80;64.50
32524;DHT22;18965;52.242;20.886;2022-08-01T06:52:34;23.30;65.50
32524;DHT22;18965;52.242;20.886;2022-08-01T06:54:59;23.00;66.40
32524;DHT22;18965;52.242;20.886;2022-08-01T06:57:25;22.70;67.10
32524;DHT22;18965;52.242;20.886;2022-08-01T06:59:52;22.40;68.10
32524;DHT22;18965;52.242;20.886;2022-08-01T07:02:18;22.10;68.70
32524;DHT22;18965;52.242;20.886;2022-08-01T07:04:43;22.00;69.40
32524;DHT22;18965;52.242;20.886;2022-08-01T07:07:09;21.70;69.40
32524;DHT22;18965;52.242;20.886;2022-08-01T07:09:35;21.60;70.70
32524;DHT22;18965;52.242;20.886;2022-08-01T07:12:03;21.50;70.60
32524;DHT22;18965;52.242;20.886;2022-08-01T07:14:29;21.40;70.70
32524;DHT22;18965;52.242;20.886;2022-08-01T07:16:54;21.30;70.70
32524;DHT22;18965;52.242;20.886;2022-08-01T07:19:20;21.30;71.40
32524;DHT22;18965;52.242;20.886;2022-08-01T07:21:46;21.20;71.70
32524;DHT22;18965;52.242;20.886;2022-08-01T07:24:13;21.20;70.80
32524;DHT22;18965;52.242;20.886;2022-08-01T07:26:45;21.20;71.20
32524;DHT22;18965;52.242;20.886;2022-08-01T07:29:11;21.20;71.70
32524;DHT22;18965;52.242;20.886;2022-08-01T07:31:37;21.20;71.80
32524;DHT22;18965;52.242;20.886;2022-08-01T07:34:02;21.20;72.00
32524;DHT22;18965;52.242;20.886;2022-08-01T07:36:28;21.20;72.10
32524;DHT22;18965;52.242;20.886;2022-08-01T07:38:55;21.20;72.30
32524;DHT22;18965;52.242;20.886;2022-08-01T07:41:21;21.20;72.50
32524;DHT22;18965;52.242;20.886;2022-08-01T07:43:46;21.20;72.50
32524;DHT22;18965;52.242;20.886;2022-08-01T07:46:14;21.30;72.20
32524;DHT22;18965;52.242;20.886;2022-08-01T07:48:41;21.30;72.10
32524;DHT22;18965;52.242;20.886;2022-08-01T07:51:07;21.30;72.30
32524;DHT22;18965;52.242;20.886;2022-08-01T07:53:34;21.30;72.50
32524;DHT22;18965;52.242;20.886;2022-08-01T07:55:59;21.30;71.90
32524;DHT22;18965;52.242;20.886;2022-08-01T07:58:28;21.30;71.70
32524;DHT22;18965;52.242;20.886;2022-08-01T08:00:53;21.30;72.20
32524;DHT22;18965;52.242;20.886;2022-08-01T08:03:19;21.30;71.90
32524;DHT22;18965;52.242;20.886;2022-08-01T08:05:45;21.30;71.80
32524;DHT22;18965;52.242;20.886;2022-08-01T08:08:11;21.30;71.10
32524;DHT22;18965;52.242;20.886;2022-08-01T08:10:37;21.30;71.10
32524;DHT22;18965;52.242;20.886;2022-08-01T08:13:03;21.30;70.90
32524;DHT22;18965;52.242;20.886;2022-08-01T08:15:29;21.30;70.70
32524;DHT22;18965;52.242;20.886;2022-08-01T08:17:55;21.30;70.40
32524;DHT22;18965;52.242;20.886;2022-08-01T08:20:21;21.40;70.20
32524;DHT22;18965;52.242;20.886;2022-08-01T08:22:51;21.40;70.40
32524;DHT22;18965;52.242;20.886;2022-08-01T08:25:17;21.40;70.70
32524;DHT22;18965;52.242;20.886;2022-08-01T08:27:45;21.40;69.70
32524;DHT22;18965;52.242;20.886;2022-08-01T08:30:11;21.40;69.90
32524;DHT22;18965;52.242;20.886;2022-08-01T08:32:37;21.40;69.50
32524;DHT22;18965;52.242;20.886;2022-08-01T08:35:04;21.40;69.70
32524;DHT22;18965;52.242;20.886;2022-08-01T08:37:30;21.50;69.80
32524;DHT22;18965;52.242;20.886;2022-08-01T08:39:56;21.50;69.10
32524;DHT22;18965;52.242;20.886;2022-08-01T08:42:22;21.60;70.00
32524;DHT22;18965;52.242;20.886;2022-08-01T08:44:48;21.60;69.90
32524;DHT22;18965;52.242;20.886;2022-08-01T08:47:15;21.60;70.10
32524;DHT22;18965;52.242;20.886;2022-08-01T08:49:44;21.60;69.90
32524;DHT22;18965;52.242;20.886;2022-08-01T08:52:11;21.60;69.80
32524;DHT22;18965;52.242;20.886;2022-08-01T08:54:38;21.60;70.10
32524;DHT22;18965;52.242;20.886;2022-08-01T08:57:06;21.60;70.40
32524;DHT22;18965;52.242;20.886;2022-08-01T08:59:32;21.60;70.30
32524;DHT22;18965;52.242;20.886;2022-08-01T09:01:58;21.60;70.20
32524;DHT22;18965;52.242;20.886;2022-08-01T09:04:25;21.60;70.40
32524;DHT22;18965;52.242;20.886;2022-08-01T09:06:51;21.60;71.00
32524;DHT22;18965;52.242;20.886;2022-08-01T09:09:17;21.70;71.10
32524;DHT22;18965;52.242;20.886;2022-08-01T09:11:44;21.70;71.50
32524;DHT22;18965;52.242;20.886;2022-08-01T09:14:15;21.80;71.30
32524;DHT22;18965;52.242;20.886;2022-08-01T09:17:02;21.80;71.30
32524;DHT22;18965;52.242;20.886;2022-08-01T09:19:36;21.90;70.80
32524;DHT22;18965;52.242;20.886;2022-08-01T09:22:05;21.90;70.80
32524;DHT22;18965;52.242;20.886;2022-08-01T09:24:33;21.90;70.40
32524;DHT22;18965;52.242;20.886;2022-08-01T09:27:00;21.90;69.60
32524;DHT22;18965;52.242;20.886;2022-08-01T09:29:28;22.00;69.70
32524;DHT22;18965;52.242;20.886;2022-08-01T09:31:55;22.00;69.40
32524;DHT22;18965;52.242;20.886;2022-08-01T09:34:29;22.00;69.50
32524;DHT22;18965;52.242;20.886;2022-08-01T09:37:02;22.00;70.40
32524;DHT22;18965;52.242;20.886;2022-08-01T09:39:32;22.10;70.10
32524;DHT22;18965;52.242;20.886;2022-08-01T09:42:02;22.10;70.10
32524;DHT22;18965;52.242;20.886;2022-08-01T09:44:43;22.10;70.10
32524;DHT22;18965;52.242;20.886;2022-08-01T09:47:13;22.10;69.70
32524;DHT22;18965;52.242;20.886;2022-08-01T09:49:40;22.10;69.40
32524;DHT22;18965;52.242;20.886;2022-08-01T09:52:24;22.20;69.00
32524;DHT22;18965;52.242;20.886;2022-08-01T09:54:59;22.30;68.70
32524;DHT22;18965;52.242;20.886;2022-08-01T09:57:27;22.30;68.70
32524;DHT22;18965;52.242;20.886;2022-08-01T09:59:55;22.40;69.20
32524;DHT22;18965;52.242;20.886;2022-08-01T10:02:38;22.40;68.90
32524;DHT22;18965;52.242;20.886;2022-08-01T10:05:09;22.50;67.70
32524;DHT22;18965;52.242;20.886;2022-08-01T10:07:54;22.60;68.00
32524;DHT22;18965;52.242;20.886;2022-08-01T10:10:21;22.70;67.80
32524;DHT22;18965;52.242;20.886;2022-08-01T10:12:47;22.80;67.50
32524;DHT22;18965;52.242;20.886;2022-08-01T10:15:18;22.80;67.90
32524;DHT22;18965;52.242;20.886;2022-08-01T10:18:06;22.90;67.60
32524;DHT22;18965;52.242;20.886;2022-08-01T10:20:33;22.90;66.90
32524;DHT22;18965;52.242;20.886;2022-08-01T10:23:01;23.00;66.70
32524;DHT22;18965;52.242;20.886;2022-08-01T10:25:29;23.00;67.50
32524;DHT22;18965;52.242;20.886;2022-08-01T10:27:57;23.00;66.80
32524;DHT22;18965;52.242;20.886;2022-08-01T10:30:24;23.10;67.40
32524;DHT22;18965;52.242;20.886;2022-08-01T10:32:51;23.10;66.50
32524;DHT22;18965;52.242;20.886;2022-08-01T10:35:21;23.20;67.00
32524;DHT22;18965;52.242;20.886;2022-08-01T10:37:47;23.30;66.50
32524;DHT22;18965;52.242;20.886;2022-08-01T10:40:14;23.30;67.20
32524;DHT22;18965;52.242;20.886;2022-08-01T10:42:42;23.40;66.20
32524;DHT22;18965;52.242;20.886;2022-08-01T10:45:11;23.50;65.50
32524;DHT22;18965;52.242;20.886;2022-08-01T10:48:28;23.60;65.70
32524;DHT22;18965;52.242;20.886;2022-08-01T10:50:37;23.70;65.50
32524;DHT22;18965;52.242;20.886;2022-08-01T10:53:09;23.70;64.50
32524;DHT22;18965;52.242;20.886;2022-08-01T10:55:50;23.70;64.60
32524;DHT22;18965;52.242;20.886;2022-08-01T10:58:42;23.70;64.50
32524;DHT22;18965;52.242;20.886;2022-08-01T11:01:26;23.70;65.00
32524;DHT22;18965;52.242;20.886;2022-08-01T11:04:00;23.70;64.40
32524;DHT22;18965;52.242;20.886;2022-08-01T11:12:09;23.70;63.00
32524;DHT22;18965;52.242;20.886;2022-08-01T11:17:34;23.80;61.60
32524;DHT22;18965;52.242;20.886;2022-08-01T11:20:21;23.90;61.30
32524;DHT22;18965;52.242;20.886;2022-08-01T11:25:26;23.90;61.60
32524;DHT22;18965;52.242;20.886;2022-08-01T11:30:54;24.00;61.90
32524;DHT22;18965;52.242;20.886;2022-08-01T11:54:34;24.30;60.90
32524;DHT22;18965;52.242;20.886;2022-08-01T11:57:05;24.30;61.20
32524;DHT22;18965;52.242;20.886;2022-08-01T11:59:44;24.30;61.60
32524;DHT22;18965;52.242;20.886;2022-08-01T12:02:33;24.30;61.40
32524;DHT22;18965;52.242;20.886;2022-08-01T12:05:07;24.30;61.20
32524;DHT22;18965;52.242;20.886;2022-08-01T12:07:35;24.30;59.90
32524;DHT22;18965;52.242;20.886;2022-08-01T12:10:09;24.30;60.90
32524;DHT22;18965;52.242;20.886;2022-08-01T12:12:36;24.30;59.40
32524;DHT22;18965;52.242;20.886;2022-08-01T12:15:07;24.30;59.30
32524;DHT22;18965;52.242;20.886;2022-08-01T12:18:04;24.30;59.00
32524;DHT22;18965;52.242;20.886;2022-08-01T12:20:38;24.30;58.80
32524;DHT22;18965;52.242;20.886;2022-08-01T12:23:09;24.30;59.00
32524;DHT22;18965;52.242;20.886;2022-08-01T12:25:36;24.30;59.10
32524;DHT22;18965;52.242;20.886;2022-08-01T12:28:04;24.30;59.90
32524;DHT22;18965;52.242;20.886;2022-08-01T12:30:31;24.30;60.50
32524;DHT22;18965;52.242;20.886;2022-08-01T12:33:01;24.30;60.70
32524;DHT22;18965;52.242;20.886;2022-08-01T12:35:28;24.40;60.20
32524;DHT22;18965;52.242;20.886;2022-08-01T12:37:59;24.40;59.60
32524;DHT22;18965;52.242;20.886;2022-08-01T12:40:29;24.40;59.80
32524;DHT22;18965;52.242;20.886;2022-08-01T12:43:00;24.40;59.50
32524;DHT22;18965;52.242;20.886;2022-08-01T12:45:39;24.50;59.00
32524;DHT22;18965;52.242;20.886;2022-08-01T12:48:13;24.50;59.60
32524;DHT22;18965;52.242;20.886;2022-08-01T12:50:44;24.50;59.20
32524;DHT22;18965;52.242;20.886;2022-08-01T12:53:11;24.60;59.50
32524;DHT22;18965;52.242;20.886;2022-08-01T12:55:49;24.50;59.20
32524;DHT22;18965;52.242;20.886;2022-08-01T12:58:16;24.50;58.10
32524;DHT22;18965;52.242;20.886;2022-08-01T13:00:45;24.50;58.70
32524;DHT22;18965;52.242;20.886;2022-08-01T13:03:19;24.50;59.30
32524;DHT22;18965;52.242;20.886;2022-08-01T13:08:25;24.60;59.30
32524;DHT22;18965;52.242;20.886;2022-08-01T13:11:06;24.60;59.20
32524;DHT22;18965;52.242;20.886;2022-08-01T13:13:52;24.60;59.10
32524;DHT22;18965;52.242;20.886;2022-08-01T13:16:23;24.70;60.30
32524;DHT22;18965;52.242;20.886;2022-08-01T13:18:51;24.70;59.50
32524;DHT22;18965;52.242;20.886;2022-08-01T13:21:26;24.70;59.10
32524;DHT22;18965;52.242;20.886;2022-08-01T13:26:49;24.80;58.90
32524;DHT22;18965;52.242;20.886;2022-08-01T13:29:20;24.80;58.10
32524;DHT22;18965;52.242;20.886;2022-08-01T13:31:49;24.80;58.00
32524;DHT22;18965;52.242;20.886;2022-08-01T13:34:15;24.80;58.20
32524;DHT22;18965;52.242;20.886;2022-08-01T13:36:41;24.80;58.50
32524;DHT22;18965;52.242;20.886;2022-08-01T13:39:07;24.80;58.60
32524;DHT22;18965;52.242;20.886;2022-08-01T13:41:52;24.90;59.20
32524;DHT22;18965;52.242;20.886;2022-08-01T13:44:18;24.90;58.80
32524;DHT22;18965;52.242;20.886;2022-08-01T13:46:44;24.90;59.00
32524;DHT22;18965;52.242;20.886;2022-08-01T13:49:13;25.00;58.20
32524;DHT22;18965;52.242;20.886;2022-08-01T13:51:39;25.00;57.90
32524;DHT22;18965;52.242;20.886;2022-08-01T13:54:05;25.00;57.90
32524;DHT22;18965;52.242;20.886;2022-08-01T13:56:32;25.00;57.90
32524;DHT22;18965;52.242;20.886;2022-08-01T13:58:57;25.00;58.10
32524;DHT22;18965;52.242;20.886;2022-08-01T14:01:24;25.00;58.30
32524;DHT22;18965;52.242;20.886;2022-08-01T14:03:50;25.00;58.10
32524;DHT22;18965;52.242;20.886;2022-08-01T14:06:18;25.00;57.80
32524;DHT22;18965;52.242;20.886;2022-08-01T14:08:44;24.90;58.10
32524;DHT22;18965;52.242;20.886;2022-08-01T14:11:11;24.90;58.10
32524;DHT22;18965;52.242;20.886;2022-08-01T14:13:37;24.90;58.10
32524;DHT22;18965;52.242;20.886;2022-08-01T14:16:04;24.90;58.90
32524;DHT22;18965;52.242;20.886;2022-08-01T14:18:30;24.90;58.20
32524;DHT22;18965;52.242;20.886;2022-08-01T14:20:56;24.90;58.10
32524;DHT22;18965;52.242;20.886;2022-08-01T14:23:22;25.00;58.10
32524;DHT22;18965;52.242;20.886;2022-08-01T14:25:48;25.00;58.20
32524;DHT22;18965;52.242;20.886;2022-08-01T14:28:13;25.10;57.70
32524;DHT22;18965;52.242;20.886;2022-08-01T14:30:39;25.10;57.40
32524;DHT22;18965;52.242;20.886;2022-08-01T14:33:08;25.20;57.00
32524;DHT22;18965;52.242;20.886;2022-08-01T14:35:34;25.20;57.40
32524;DHT22;18965;52.242;20.886;2022-08-01T14:37:59;25.30;56.90
32524;DHT22;18965;52.242;20.886;2022-08-01T14:40:25;25.30;56.50
32524;DHT22;18965;52.242;20.886;2022-08-01T14:42:51;25.40;56.20
32524;DHT22;18965;52.242;20.886;2022-08-01T14:45:17;25.50;57.00
32524;DHT22;18965;52.242;20.886;2022-08-01T14:47:43;25.60;57.10
32524;DHT22;18965;52.242;20.886;2022-08-01T14:50:11;25.70;56.30
32524;DHT22;18965;52.242;20.886;2022-08-01T14:52:39;25.80;55.50
32524;DHT22;18965;52.242;20.886;2022-08-01T14:55:07;25.90;55.20
32524;DHT22;18965;52.242;20.886;2022-08-01T14:57:34;26.00;55.30
32524;DHT22;18965;52.242;20.886;2022-08-01T14:59:59;26.10;55.80
32524;DHT22;18965;52.242;20.886;2022-08-01T15:02:25;26.10;55.80
32524;DHT22;18965;52.242;20.886;2022-08-01T15:04:51;26.20;55.50
32524;DHT22;18965;52.242;20.886;2022-08-01T15:07:17;26.10;55.20
32524;DHT22;18965;52.242;20.886;2022-08-01T15:09:45;26.10;54.40
32524;DHT22;18965;52.242;20.886;2022-08-01T15:12:11;26.00;54.50
32524;DHT22;18965;52.242;20.886;2022-08-01T15:14:37;26.00;53.90
32524;DHT22;18965;52.242;20.886;2022-08-01T15:17:21;26.00;54.50
32524;DHT22;18965;52.242;20.886;2022-08-01T15:19:49;25.90;53.60
32524;DHT22;18965;52.242;20.886;2022-08-01T15:22:15;25.90;54.50
32524;DHT22;18965;52.242;20.886;2022-08-01T15:24:41;25.90;54.00
32524;DHT22;18965;52.242;20.886;2022-08-01T15:27:07;25.90;54.20
32524;DHT22;18965;52.242;20.886;2022-08-01T15:29:33;25.90;54.50
32524;DHT22;18965;52.242;20.886;2022-08-01T15:32:00;25.90;55.10
32524;DHT22;18965;52.242;20.886;2022-08-01T15:34:26;25.90;55.30
32524;DHT22;18965;52.242;20.886;2022-08-01T15:36:52;25.80;55.50
32524;DHT22;18965;52.242;20.886;2022-08-01T15:39:17;25.80;55.60
32524;DHT22;18965;52.242;20.886;2022-08-01T15:41:43;25.80;55.10
32524;DHT22;18965;52.242;20.886;2022-08-01T15:44:09;25.80;55.20
32524;DHT22;18965;52.242;20.886;2022-08-01T15:46:35;25.70;55.00
32524;DHT22;18965;52.242;20.886;2022-08-01T15:49:05;25.60;55.20
32524;DHT22;18965;52.242;20.886;2022-08-01T15:51:32;25.60;54.60
32524;DHT22;18965;52.242;20.886;2022-08-01T15:53:58;25.50;54.70
32524;DHT22;18965;52.242;20.886;2022-08-01T15:56:29;25.50;54.90
32524;DHT22;18965;52.242;20.886;2022-08-01T15:58:55;25.40;55.40
32524;DHT22;18965;52.242;20.886;2022-08-01T16:01:21;25.40;55.50
32524;DHT22;18965;52.242;20.886;2022-08-01T16:03:47;25.40;55.30
32524;DHT22;18965;52.242;20.886;2022-08-01T16:06:13;25.40;55.40
32524;DHT22;18965;52.242;20.886;2022-08-01T16:08:39;25.40;55.60
32524;DHT22;18965;52.242;20.886;2022-08-01T16:11:05;25.40;55.10
32524;DHT22;18965;52.242;20.886;2022-08-01T16:13:31;25.30;54.70
32524;DHT22;18965;52.242;20.886;2022-08-01T16:15:56;25.30;55.00
32524;DHT22;18965;52.242;20.886;2022-08-01T16:18:24;25.30;54.80
32524;DHT22;18965;52.242;20.886;2022-08-01T16:20:49;25.30;55.00
32524;DHT22;18965;52.242;20.886;2022-08-01T16:23:15;25.30;55.50
32524;DHT22;18965;52.242;20.886;2022-08-01T16:25:41;25.30;55.80
32524;DHT22;18965;52.242;20.886;2022-08-01T16:28:08;25.20;56.30
32524;DHT22;18965;52.242;20.886;2022-08-01T16:30:35;25.20;56.10
32524;DHT22;18965;52.242;20.886;2022-08-01T16:33:01;25.10;55.70
32524;DHT22;18965;52.242;20.886;2022-08-01T16:35:27;25.10;56.00
32524;DHT22;18965;52.242;20.886;2022-08-01T16:37:53;25.00;56.00
32524;DHT22;18965;52.242;20.886;2022-08-01T16:40:19;25.00;56.20
32524;DHT22;18965;52.242;20.886;2022-08-01T16:42:44;25.00;56.30
32524;DHT22;18965;52.242;20.886;2022-08-01T16:45:10;24.90;56.60
32524;DHT22;18965;52.242;20.886;2022-08-01T16:47:38;24.90;56.70